Time;durP1;ratioP1;P1;durP2;ratioP2;P2;SDS_P1;SDS_P2;PMS_P1;PMS_P2;Temp;Humidity;BMP_temperature;BMP_pressure;BME280_temperature;BME280_humidity;BME280_pressure;Samples;Min_cycle;Max_cycle;Signal;HPM_P1;HPM_P2
2021/08/25 09:31:06;;;;;;;;;;;;;;;;;;1743349;22;104743394;-83
2021/08/25 09:33:55;;;;;;;;;;;;;;;;;;6276468;22;105476;-82
2021/08/25 09:36:42;;;;;;;;;;;;;;;;;;6274943;22;105367;-80
2021/08/25 09:39:28;;;;;;;;;;;;;;;;;;6275978;22;105796;-80
2021/08/25 09:42:16;;;;;;;;;;;;;;;;;;6276393;22;105124;-78
2021/08/25 09:45:04;;;;;;;;;;;;;;;;;;6275769;22;105184;-77
2021/08/25 09:47:51;;;;;;;;;;;;;;;;;;6275686;22;105176;-76
2021/08/25 09:50:36;;;;;;;;;;;;;;;;;;6276148;22;105803;-76
2021/08/25 09:53:22;;;;;;;;;;;;;;;;;;6275328;22;105096;-76
2021/08/25 09:56:24;;;;;;;;;;;;;;;;;;6276436;22;105220;-76
2021/08/25 09:59:11;;;;;;;;;;;;;;;;;;6276432;22;105604;-77
2021/08/25 10:01:56;;;;;;;;;;;;;;;;;;6274376;22;105757;-77
2021/08/25 10:04:44;;;;;;;;;;;;;;;;;;6275746;22;105335;-78
2021/08/25 10:07:30;;;;;;;;;;;;;;;;;;6274316;22;105303;-81
2021/08/25 10:10:18;;;;;;;;;;;;;;;;;;6276020;22;105257;-77
2021/08/25 10:13:04;;;;;;;;;;;;;;;;;;6272684;22;105820;-76
2021/08/25 10:15:56;;;;;;;;;;;;;;;;;;6273260;22;105561;-79
2021/08/25 10:18:42;;;;;;;;;;;;;;;;;;6274088;22;105164;-78
2021/08/25 10:21:31;;;;;;;;;;;;;;;;;;6274448;22;105295;-78
2021/08/25 10:24:16;;;;;;;;;;;;;;;;;;6273457;22;105902;-78
2021/08/25 10:27:05;;;;;;;;;;;;;;;;;;6272717;22;105335;-74
2021/08/25 10:30:00;;;;;;;;;;;;;;;;;;6275225;22;105170;-74
2021/08/25 10:32:52;;;;;;;;;;;;;;;;;;6275343;22;105176;-75
2021/08/25 10:35:41;;;;;;;;;;;;;;;;;;6275045;22;105764;-74
2021/08/25 10:38:28;;;;;;;;;;;;;;;;;;6275863;22;105262;-76
2021/08/25 10:41:20;;;;;;;;;;;;;;;;;;6267668;22;105357;-76
2021/08/25 10:44:08;;;;;;;;;;;;;;;;;;6267968;22;105105;-77
2021/08/25 10:46:53;;;;;;;;;;;;;;;;;;6268154;22;105766;-75
2021/08/25 10:49:40;;;;;;;;;;;;;;;;;;6267466;22;105113;-76
2021/08/25 10:52:25;;;;;;;;;;;;;;;;;;6266252;22;105419;-76
2021/08/25 10:55:10;;;;;;;;;;;;;;;;;;6268199;22;105197;-77
2021/08/25 10:58:07;;;;;;;;;;;;;;;;;;6267371;22;105630;-83
2021/08/25 11:01:44;;;;;;;;;;;;;;;;;;6265824;22;105620;-84
2021/08/25 11:04:28;;;;;;;;;;;;;;;;;;6266333;22;105346;-84
2021/08/25 11:07:14;;;;;;;;;;;;;;;;;;6264449;22;105565;-83
2021/08/25 11:10:00;;;;;;;;;;;;;;;;;;6263985;22;105855;-84
2021/08/25 11:12:45;;;;;;;;;;;;;;;;;;6264286;22;105426;-84
2021/08/25 11:15:31;;;;;;;;;;;;;;;;;;6267629;22;105228;-83
2021/08/25 11:18:36;;;;;;;;;;;;;;;;;;6266075;22;105402;-84
2021/08/25 11:21:22;;;;;;;;;;;;;;;;;;6268645;22;105874;-84
2021/08/25 11:24:07;;;;;;;;;;;;;;;;;;6268042;22;105295;-84
2021/08/25 11:26:53;;;;;;;;;;;;;;;;;;6268511;22;105174;-84
2021/08/25 11:29:38;;;;;;;;;;;;;;;;;;6267772;22;105198;-85
2021/08/25 11:32:48;;;;;;;;;;;;;;;;;;6268347;22;105836;-85
2021/08/25 11:35:34;;;;;;;;;;;;;;;;;;6269399;22;105260;-84
2021/08/25 11:38:19;;;;;;;;;;;;;;;;;;6266429;22;105449;-86
2021/08/25 11:41:07;;;;;;;;;;;;;;;;;;6268435;22;105190;-82
2021/08/25 11:43:54;;;;;;;;;;;;;;;;;;6267174;22;105121;-82
2021/08/25 11:46:40;;;;;;;;;;;;;;;;;;6267717;22;105339;-85
2021/08/25 11:49:28;;;;;;;;;;;;;;;;;;6267642;22;105138;-83
2021/08/25 11:52:33;;;;;;;;;;;;;;;;;;6267826;22;105292;-83
2021/08/25 11:55:21;;;;;;;;;;;;;;;;;;6268488;22;105752;-81
2021/08/25 11:58:27;;;;;;;;;;;;;;;;;;6268265;22;105218;-81
2021/08/25 12:01:21;;;;;;;;;;;;;;;;;;5319620;22;25877015;-90
2021/08/25 12:04:08;;;;;;;;;;;;;;;;;;6256484;22;106827;-84
2021/08/25 12:06:56;;;;;;;;;;;;;;;;;;6236484;22;105244;-83
2021/08/25 12:09:42;;;;;;;;;;;;;;;;;;6236736;22;105114;-87
2021/08/25 12:12:54;;;;;;;;;;;;;;;;;;6235411;22;105249;-87
2021/08/25 12:15:47;;;;;;;;;;;;;;;;;;6235021;22;105776;-88
2021/08/25 12:18:47;;;;;;;;;;;;;;;;;;6235807;22;105351;-78
2021/08/25 12:21:35;;;;;;;;;;;;;;;;;;6237168;22;105230;-80
2021/08/25 12:24:40;;;;;;;;;;;;;;;;;;6238251;22;105320;-87
2021/08/25 12:27:42;;;;;;;;;;;;;;;;;;6237055;22;106736;-84
2021/08/25 12:30:44;;;;;;;;;;;;;;;;;;6235569;22;105317;-77
2021/08/25 12:33:33;;;;;;;;;;;;;;;;;;6236252;22;105233;-84
2021/08/25 12:36:24;;;;;;;;;;;;;;;;;;6236787;22;105290;-83
2021/08/25 12:39:16;;;;;;;;;;;;;;;;;;6237083;22;106104;-89
2021/08/25 12:42:07;;;;;;;;;;;;;;;;;;6236918;22;105910;-90
2021/08/25 12:45:03;;;;;;;;;;;;;;;;;;6237896;22;105501;-87
2021/08/25 12:47:53;;;;;;;;;;;;;;;;;;6236074;22;105338;-86
2021/08/25 12:50:39;;;;;;;;;;;;;;;;;;6237205;22;105796;-81
2021/08/25 12:53:24;;;;;;;;;;;;;;;;;;6237836;22;105660;-85
2021/08/25 12:56:10;;;;;;;;;;;;;;;;;;6238514;22;105081;-90
2021/08/25 12:58:55;;;;;;;;;;;;;;;;;;6235362;22;105230;-81
2021/08/25 13:01:44;;;;;;;;;;;;;;;;;;6236434;22;105780;-90
2021/08/25 13:04:30;;;;;;;;;;;;;;;;;;6237412;22;105221;-80
2021/08/25 13:07:17;;;;;;;;;;;;;;;;;;6238049;22;105054;-84
2021/08/25 13:10:21;;;;;;;;;;;;;;;;;;6235480;22;105192;-82
2021/08/25 13:13:07;;;;;;;;;;;;;;;;;;6235602;22;105199;-86
2021/08/25 13:15:58;;;;;;;;;;;;;;;;;;6178353;22;105145;-86
2021/08/25 13:18:44;;;;;;;;;;;;;;;;;;6122925;22;105386;-82
2021/08/25 13:21:42;;;;;;;;;;;;;;;;;;6122241;22;105223;-82
2021/08/25 13:24:29;;;;;;;;;;;;;;;;;;6143032;22;105911;-81
2021/08/25 13:27:15;;;;;;;;;;;;;;;;;;6114434;23;105164;-84
2021/08/25 13:30:04;;;;;;;;;;;;;;;;;;6114474;23;105219;-84
2021/08/25 13:32:49;;;;;;;;;;;;;;;;;;6125035;23;105263;-82
2021/08/25 13:35:35;;;;;;;;;;;;;;;;;;6126164;23;105796;-84
2021/08/25 13:38:21;;;;;;;;;;;;;;;;;;6118315;23;105178;-81
2021/08/25 13:41:06;;;;;;;;;;;;;;;;;;6093118;23;105492;-82
2021/08/25 13:43:52;;;;;;;;;;;;;;;;;;6114879;23;105224;-79
2021/08/25 13:46:41;;;;;;;;;;;;;;;;;;6117596;22;105818;-79
2021/08/25 13:49:26;;;;;;;;;;;;;;;;;;6142521;23;105136;-80
2021/08/25 13:52:50;;;;;;;;;;;;;;;;;;6133499;22;108371;-80
2021/08/25 13:55:45;;;;;;;;;;;;;;;;;;6144361;22;105463;-82
2021/08/25 13:58:44;;;;;;;;;;;;;;;;;;6144371;23;105799;-79
2021/08/25 14:01:30;;;;;;;;;;;;;;;;;;6144600;22;105402;-79
2021/08/25 14:04:29;;;;;;;;;;;;;;;;;;6144707;22;105565;-79
2021/08/25 14:07:14;;;;;;;;;;;;;;;;;;6144423;22;105196;-80
2021/08/25 14:09:59;;;;;;;;;;;;;;;;;;6144237;22;105275;-80
2021/08/25 14:12:51;;;;;;;;;;;;;;;;;;6144651;23;105561;-80
2021/08/25 14:15:37;;;;;;;;;;;;;;;;;;6145696;22;105292;-78
2021/08/25 14:18:26;;;;;;;;;;;;;;;;;;6144745;22;105296;-81
2021/08/25 14:21:12;;;;;;;;;;;;;;;;;;6140930;22;108133;-82
2021/08/25 14:24:11;;;;;;;;;;;;;;;;;;6146097;22;105104;-81
2021/08/25 14:27:17;;;;;;;;;;;;;;;;;;6119456;22;106067;-80
2021/08/25 14:30:25;;;;;;;;;;;;;;;;;;6146171;22;105970;-82
2021/08/25 14:33:11;;;;;;;;;;;;;;;;;;6108698;22;105810;-81
2021/08/25 14:36:08;;;;;;;;;;;;;;;;;;6121040;22;105301;-82
2021/08/25 14:39:11;;;;;;;;;;;;;;;;;;6144241;22;105238;-80
2021/08/25 14:42:10;;;;;;;;;;;;;;;;;;6144566;22;105169;-81
2021/08/25 14:45:09;;;;;;;;;;;;;;;;;;6144647;22;105330;-80
2021/08/25 14:48:07;;;;;;;;;;;;;;;;;;6145869;22;105404;-80
2021/08/25 14:51:26;;;;;;;;;;;;;;;;;;6146517;22;105130;-80
2021/08/25 14:54:12;;;;;;;;;;;;;;;;;;6146043;22;105155;-81
2021/08/25 14:56:55;;;;;;;;;;;;;;;;;;6144985;22;105562;-80
2021/08/25 14:59:41;;;;;;;;;;;;;;;;;;6145694;22;105098;-81
2021/08/25 15:02:29;;;;;;;;;;;;;;;;;;6145773;22;105381;-82
2021/08/25 15:05:15;;;;;;;;;;;;;;;;;;6145945;22;105282;-83
2021/08/25 15:08:00;;;;;;;;;;;;;;;;;;6145727;22;105891;-79
2021/08/25 15:10:46;;;;;;;;;;;;;;;;;;6145711;22;105617;-79
2021/08/25 15:13:36;;;;;;;;;;;;;;;;;;6144692;22;105139;-83
2021/08/25 15:16:50;;;;;;;;;;;;;;;;;;;;;
2021/08/25 15:19:39;;;;;;;;;;;;;;;;;;6145896;22;105804;-79
2021/08/25 15:22:28;;;;;;;;;;;;;;;;;;6144601;22;105129;-79
2021/08/25 15:25:14;;;;;;;;;;;;;;;;;;6145833;22;105176;-81
2021/08/25 15:28:07;;;;;;;;;;;;;;;;;;6144990;22;105387;-81
2021/08/25 15:31:20;;;;;;;;;;;;;;;;;;6145380;22;105966;-82
2021/08/25 15:34:19;;;;;;;;;;;;;;;;;;6145602;22;105597;-82
2021/08/25 15:37:22;;;;;;;;;;;;;;;;;;6144133;22;105406;-79
2021/08/25 15:40:14;;;;;;;;;;;;;;;;;;6145122;22;105175;-78
2021/08/25 15:43:02;;;;;;;;;;;;;;;;;;6145825;22;105837;-79
2021/08/25 15:45:47;;;;;;;;;;;;;;;;;;6143334;22;105262;-77
2021/08/25 15:48:33;;;;;;;;;;;;;;;;;;6144645;22;105169;-79
2021/08/25 15:51:19;;;;;;;;;;;;;;;;;;6145828;22;105196;-82
2021/08/25 15:54:04;;;;;;;;;;;;;;;;;;6145877;22;105805;-81
2021/08/25 15:56:49;;;;;;;;;;;;;;;;;;6145669;22;105581;-81
2021/08/25 15:59:35;;;;;;;;;;;;;;;;;;6145638;22;105179;-80
2021/08/25 16:02:38;;;;;;;;;;;;;;;;;;6145316;22;105220;-81
2021/08/25 16:05:32;;;;;;;;;;;;;;;;;;6144854;22;105823;-82
2021/08/25 16:08:34;;;;;;;;;;;;;;;;;;6144840;22;105129;-84
2021/08/25 16:11:19;;;;;;;;;;;;;;;;;;6145186;22;105191;-82
2021/08/25 16:14:21;;;;;;;;;;;;;;;;;;;;;
2021/08/25 16:17:21;;;;;;;;;;;;;;;;;;6142856;22;109466;-86
2021/08/25 16:20:13;;;;;;;;;;;;;;;;;;6145092;22;105433;-85
2021/08/25 16:23:14;;;;;;;;;;;;;;;;;;6144990;22;105094;-86
2021/08/25 16:26:01;;;;;;;;;;;;;;;;;;6122219;22;105297;-84
2021/08/25 16:29:22;;;;;;;;;;;;;;;;;;6171904;22;105873;-83
2021/08/25 16:32:10;;;;;;;;;;;;;;;;;;6148829;22;105209;-83
2021/08/25 16:35:05;;;;;;;;;;;;;;;;;;6145408;22;105265;-85
2021/08/25 16:37:52;;;;;;;;;;;;;;;;;;6121751;22;105307;-82
2021/08/25 16:44:28;;;;;;;;;;;;;;;;;;6144916;22;105158;-86
2021/08/25 16:47:15;;;;;;;;;;;;;;;;;;6144310;22;105336;-88
2021/08/25 16:50:18;;;;;;;;;;;;;;;;;;6143273;22;105223;-79
2021/08/25 16:53:04;;;;;;;;;;;;;;;;;;6144399;22;105830;-79
2021/08/25 16:55:49;;;;;;;;;;;;;;;;;;6145066;22;105702;-78
2021/08/25 16:58:40;;;;;;;;;;;;;;;;;;6163032;22;108996;-78
2021/08/25 17:01:25;;;;;;;;;;;;;;;;;;6144234;22;105508;-78
2021/08/25 17:04:11;;;;;;;;;;;;;;;;;;6122083;22;105826;-78
2021/08/25 17:06:57;;;;;;;;;;;;;;;;;;6144119;22;106045;-79
2021/08/25 17:09:42;;;;;;;;;;;;;;;;;;6164557;22;105243;-76
2021/08/25 17:12:31;;;;;;;;;;;;;;;;;;6144345;22;105314;-78
2021/08/25 17:15:16;;;;;;;;;;;;;;;;;;6143954;22;105768;-78
2021/08/25 17:18:02;;;;;;;;;;;;;;;;;;6144381;22;105216;-77
2021/08/25 17:20:47;;;;;;;;;;;;;;;;;;6144266;22;105169;-78
2021/08/25 17:23:36;;;;;;;;;;;;;;;;;;6144353;22;105159;-78
2021/08/25 17:26:28;;;;;;;;;;;;;;;;;;6144682;22;105784;-79
2021/08/25 17:29:18;;;;;;;;;;;;;;;;;;6164484;22;105263;-78
2021/08/25 17:32:03;;;;;;;;;;;;;;;;;;6144480;22;105256;-78
2021/08/25 17:34:52;;;;;;;;;;;;;;;;;;6144324;22;105406;-80
2021/08/25 17:38:01;;;;;;;;;;;;;;;;;;6143978;22;105821;-79
2021/08/25 17:40:54;;;;;;;;;;;;;;;;;;6144343;22;105146;-79
2021/08/25 17:43:39;;;;;;;;;;;;;;;;;;6144341;22;105353;-78
2021/08/25 17:46:25;;;;;;;;;;;;;;;;;;6144137;22;105727;-79
2021/08/25 17:49:10;;;;;;;;;;;;;;;;;;6143581;22;105878;-77
2021/08/25 17:51:55;;;;;;;;;;;;;;;;;;6146372;22;105245;-78
2021/08/25 17:54:47;;;;;;;;;;;;;;;;;;6146571;22;105610;-78
2021/08/25 17:57:34;;;;;;;;;;;;;;;;;;6146039;22;105305;-78
2021/08/25 18:00:25;;;;;;;;;;;;;;;;;;6146136;22;105812;-77
2021/08/25 18:03:11;;;;;;;;;;;;;;;;;;6146570;22;106204;-77
2021/08/25 18:05:57;;;;;;;;;;;;;;;;;;6146381;22;105319;-76
2021/08/25 18:08:43;;;;;;;;;;;;;;;;;;6123599;22;105329;-78
2021/08/25 18:11:28;;;;;;;;;;;;;;;;;;6145987;22;105784;-79
2021/08/25 18:14:17;;;;;;;;;;;;;;;;;;6146250;22;105253;-77
2021/08/25 18:17:07;;;;;;;;;;;;;;;;;;6146402;22;105091;-78
2021/08/25 18:19:53;;;;;;;;;;;;;;;;;;6146300;22;105449;-78
2021/08/25 18:22:40;;;;;;;;;;;;;;;;;;6145669;22;105191;-78
2021/08/25 18:25:36;;;;;;;;;;;;;;;;;;6145920;22;105283;-79
2021/08/25 18:28:34;;;;;;;;;;;;;;;;;;;;;
2021/08/25 18:31:40;;;;;;;;;;;;;;;;;;6146042;22;105296;-76
2021/08/25 18:34:53;;;;;;;;;;;;;;;;;;6145189;22;105847;-79
2021/08/25 18:41:00;;;;;;;;;;;;;;;;;;6175821;22;105153;-79
2021/08/25 18:43:45;;;;;;;;;;;;;;;;;;6176021;22;105235;-78
2021/08/25 18:46:31;;;;;;;;;;;;;;;;;;6175858;22;106085;-80
2021/08/25 18:49:16;;;;;;;;;;;;;;;;;;6152175;22;105214;-80
2021/08/25 18:52:01;;;;;;;;;;;;;;;;;;6174730;22;105163;-80
2021/08/25 18:54:47;;;;;;;;;;;;;;;;;;6175653;22;105187;-80
2021/08/25 18:57:32;;;;;;;;;;;;;;;;;;6174338;22;105915;-80
2021/08/25 19:00:18;;;;;;;;;;;;;;;;;;6176048;22;105205;-79
2021/08/25 19:03:03;;;;;;;;;;;;;;;;;;6175249;22;105354;-79
2021/08/25 19:05:48;;;;;;;;;;;;;;;;;;6175752;22;105193;-79
2021/08/25 19:08:36;;;;;;;;;;;;;;;;;;6193779;22;105929;-76
2021/08/25 19:11:21;;;;;;;;;;;;;;;;;;6175674;22;105319;-78
2021/08/25 19:14:07;;;;;;;;;;;;;;;;;;6175831;22;105422;-78
2021/08/25 19:16:54;;;;;;;;;;;;;;;;;;6152753;22;105196;-79
2021/08/25 19:19:41;;;;;;;;;;;;;;;;;;6175059;22;105846;-79
2021/08/25 19:22:26;;;;;;;;;;;;;;;;;;6174814;22;105161;-80
2021/08/25 19:25:12;;;;;;;;;;;;;;;;;;6176581;22;105613;-78
2021/08/25 19:28:06;;;;;;;;;;;;;;;;;;6175959;22;105155;-80
2021/08/25 19:30:56;;;;;;;;;;;;;;;;;;6154160;22;105808;-82
2021/08/25 19:33:42;;;;;;;;;;;;;;;;;;6153364;22;105270;-81
2021/08/25 19:36:28;;;;;;;;;;;;;;;;;;6175749;22;105079;-83
2021/08/25 19:39:13;;;;;;;;;;;;;;;;;;6176012;22;105569;-83
2021/08/25 19:41:59;;;;;;;;;;;;;;;;;;6175697;22;105910;-81
2021/08/25 19:44:51;;;;;;;;;;;;;;;;;;6173740;22;105285;-82
2021/08/25 19:47:37;;;;;;;;;;;;;;;;;;6175476;22;105239;-82
2021/08/25 19:50:23;;;;;;;;;;;;;;;;;;6152490;22;105453;-81
2021/08/25 19:53:08;;;;;;;;;;;;;;;;;;6152320;22;105829;-81
2021/08/25 19:55:54;;;;;;;;;;;;;;;;;;6175826;22;105249;-81
2021/08/25 19:58:43;;;;;;;;;;;;;;;;;;6175061;22;105615;-82
2021/08/25 20:01:31;;;;;;;;;;;;;;;;;;6175463;22;105252;-91
2021/08/25 20:13:52;;;;;;;;;;;;;;;;;;6169205;22;105033;-81
2021/08/25 20:16:43;;;;;;;;;;;;;;;;;;6175870;22;105791;-82
2021/08/25 20:19:28;;;;;;;;;;;;;;;;;;6132315;22;105485;-80
2021/08/25 20:22:30;;;;;;;;;;;;;;;;;;6143328;22;105425;-81
2021/08/25 20:25:36;;;;;;;;;;;;;;;;;;6121912;22;105277;-82
2021/08/25 20:28:41;;;;;;;;;;;;;;;;;;6154988;22;105588;-81
2021/08/25 20:31:37;;;;;;;;;;;;;;;;;;;;;
2021/08/25 20:34:42;;;;;;;;;;;;;;;;;;6175371;22;105440;-80
2021/08/25 20:37:49;;;;;;;;;;;;;;;;;;6165806;22;105248;-80
2021/08/25 20:40:36;;;;;;;;;;;;;;;;;;6144897;22;105230;-80
2021/08/25 20:43:22;;;;;;;;;;;;;;;;;;6145758;22;105171;-74
2021/08/25 20:46:09;;;;;;;;;;;;;;;;;;6145464;22;104981;-79
2021/08/25 20:48:55;;;;;;;;;;;;;;;;;;6144673;22;105833;-80
2021/08/25 20:51:41;;;;;;;;;;;;;;;;;;6164856;22;105859;-81
2021/08/25 20:54:28;;;;;;;;;;;;;;;;;;6163654;22;105448;-80
2021/08/25 20:57:13;;;;;;;;;;;;;;;;;;6145383;22;105283;-79
2021/08/25 21:00:06;;;;;;;;;;;;;;;;;;6164843;22;105217;-78
2021/08/25 21:09:51;;;;;;;;;;;;;;;;;;6140926;22;105670;-77
2021/08/25 21:12:53;;;;;;;;;;;;;;;;;;6144679;22;105266;-75
2021/08/25 21:15:39;;;;;;;;;;;;;;;;;;6177745;22;105815;-74
2021/08/25 21:18:24;;;;;;;;;;;;;;;;;;6144293;22;105118;-76
2021/08/25 21:21:10;;;;;;;;;;;;;;;;;;6143374;22;105077;-76
2021/08/25 21:24:15;;;;;;;;;;;;;;;;;;6163324;22;105244;-77
2021/08/25 21:27:31;;;;;;;;;;;;;;;;;;6135456;22;105332;-77
2021/08/25 21:30:21;;;;;;;;;;;;;;;;;;6162726;22;105519;-78
2021/08/25 21:47:13;;;;;;;;;;;;;;;;;;;;;
2021/08/25 21:53:55;;;;;;;;;;;;;;;;;;6136232;22;105787;-79
2021/08/25 21:56:59;;;;;;;;;;;;;;;;;;6136610;22;110256;-79
2021/08/25 22:00:23;;;;;;;;;;;;;;;;;;6145878;22;105576;-79
2021/08/25 22:03:15;;;;;;;;;;;;;;;;;;6155605;22;105583;-78
2021/08/25 22:06:32;;;;;;;;;;;;;;;;;;6143211;22;105801;-78
2021/08/25 22:09:18;;;;;;;;;;;;;;;;;;6134650;22;105249;-78
2021/08/25 22:12:28;;;;;;;;;;;;;;;;;;6142605;22;105182;-78
2021/08/25 22:25:28;;;;;;;;;;;;;;;;;;6173229;22;105956;-77
2021/08/25 22:28:24;;;;;;;;;;;;;;;;;;6172596;22;105456;-76
2021/08/25 22:31:10;;;;;;;;;;;;;;;;;;6174088;22;105152;-77
2021/08/25 22:33:57;;;;;;;;;;;;;;;;;;6146234;22;105235;-77
2021/08/25 22:36:52;;;;;;;;;;;;;;;;;;6144920;22;105120;-77
2021/08/25 22:39:38;;;;;;;;;;;;;;;;;;6144996;22;105497;-77
2021/08/25 22:42:39;;;;;;;;;;;;;;;;;;6145449;22;105931;-77
2021/08/25 22:45:28;;;;;;;;;;;;;;;;;;6149173;22;105623;-78
2021/08/25 22:48:14;;;;;;;;;;;;;;;;;;6154991;22;105132;-76
2021/08/25 22:51:00;;;;;;;;;;;;;;;;;;6178369;22;105110;-76
2021/08/25 22:53:46;;;;;;;;;;;;;;;;;;6145844;22;105870;-76
2021/08/25 22:56:32;;;;;;;;;;;;;;;;;;6145039;22;105110;-76
2021/08/25 22:59:17;;;;;;;;;;;;;;;;;;6115198;22;105418;-77
2021/08/25 23:02:04;;;;;;;;;;;;;;;;;;6085011;23;105268;-76
2021/08/25 23:04:59;;;;;;;;;;;;;;;;;;6153850;22;105903;-77
2021/08/25 23:07:49;;;;;;;;;;;;;;;;;;6164749;22;105332;-77
2021/08/25 23:10:36;;;;;;;;;;;;;;;;;;6104986;22;105589;-77
2021/08/25 23:13:22;;;;;;;;;;;;;;;;;;6164586;22;105208;-77
2021/08/25 23:16:08;;;;;;;;;;;;;;;;;;6141909;22;105813;-76
2021/08/25 23:18:54;;;;;;;;;;;;;;;;;;6191770;22;105391;-78
2021/08/25 23:21:40;;;;;;;;;;;;;;;;;;6174800;22;105179;-78
2021/08/25 23:24:26;;;;;;;;;;;;;;;;;;6152757;22;105362;-77
2021/08/25 23:27:12;;;;;;;;;;;;;;;;;;6175462;22;105807;-78
2021/08/25 23:30:00;;;;;;;;;;;;;;;;;;6175468;22;105147;-78
2021/08/25 23:32:45;;;;;;;;;;;;;;;;;;6175278;22;105663;-77
2021/08/25 23:35:56;;;;;;;;;;;;;;;;;;6174129;22;105408;-77
2021/08/25 23:38:45;;;;;;;;;;;;;;;;;;6194955;22;106192;-78
2021/08/25 23:41:30;;;;;;;;;;;;;;;;;;6176026;22;105717;-77
2021/08/25 23:44:16;;;;;;;;;;;;;;;;;;6175570;22;105260;-78
2021/08/25 23:47:02;;;;;;;;;;;;;;;;;;6194188;22;105515;-79
2021/08/25 23:49:48;;;;;;;;;;;;;;;;;;6144769;22;105764;-78
2021/08/25 23:52:36;;;;;;;;;;;;;;;;;;6143905;22;105575;-78
2021/08/25 23:55:22;;;;;;;;;;;;;;;;;;6145967;22;105344;-78
2021/08/25 23:58:15;;;;;;;;;;;;;;;;;;6145657;22;105210;-78
